Time;durP1;ratioP1;P1;durP2;ratioP2;P2;SDS_P1;SDS_P2;PMS_P1;PMS_P2;Temp;Humidity;BMP_temperature;BMP_pressure;BME280_temperature;BME280_humidity;BME280_pressure;Samples;Min_cycle;Max_cycle;Signal;HPM_P1;HPM_P2
2022/09/11 00:09:55;;;;;;;0.20;0.20;;;;;;;19.62;57.08;100238.13;18353569;32;20111;-57
2022/09/11 00:19:59;;;;;;;0.20;0.20;;;;;;;19.62;56.04;100234.63;18354391;32;20123;-58
2022/09/11 00:30:04;;;;;;;0.22;0.22;;;;;;;19.43;57.23;100239.84;18352752;32;20105;-57
2022/09/11 00:40:09;;;;;;;0.20;0.20;;;;;;;19.01;59.11;100237.09;18355807;32;20416;-57
2022/09/11 00:50:15;;;;;;;0.30;0.30;;;;;;;19.15;57.65;100233.87;18361764;32;20108;-57
2022/09/11 01:00:22;;;;;;;0.20;0.20;;;;;;;18.59;60.16;100236.06;18362616;32;20125;-57
2022/09/11 01:10:33;;;;;;;0.20;0.20;;;;;;;18.96;58.94;100242.53;18361220;31;20105;-57
2022/09/11 01:20:48;;;;;;;0.20;0.20;;;;;;;18.82;58.99;100242.22;18360973;32;20130;-57
2022/09/11 01:30:57;;;;;;;0.32;0.32;;;;;;;18.69;59.80;100240.06;18361703;32;20217;-57
2022/09/11 01:41:06;;;;;;;0.25;0.25;;;;;;;18.61;60.25;100236.84;18360130;32;20103;-57
2022/09/11 01:51:19;;;;;;;0.40;0.40;;;;;;;18.64;59.91;100225.28;18359689;32;20800;-58
2022/09/11 02:01:25;;;;;;;0.28;0.28;;;;;;;18.47;60.38;100223.28;18359845;32;20089;-57
2022/09/11 02:11:32;;;;;;;0.20;0.20;;;;;;;18.48;60.18;100210.03;18359185;32;20108;-57
2022/09/11 02:21:36;;;;;;;0.15;0.15;;;;;;;18.17;60.50;100214.69;18358663;32;20106;-57
2022/09/11 02:31:41;;;;;;;0.20;0.20;;;;;;;17.96;61.30;100200.44;18358314;32;20105;-56
2022/09/11 02:41:56;;;;;;;0.30;0.30;;;;;;;17.88;61.14;100219.22;18358752;32;20093;-56
2022/09/11 02:52:05;;;;;;;0.30;0.30;;;;;;;18.09;61.19;100216.75;18358331;32;20108;-56
2022/09/11 03:02:11;;;;;;;0.30;0.30;;;;;;;18.05;61.23;100203.69;18356201;32;20537;-57
2022/09/11 03:12:16;;;;;;;0.20;0.20;;;;;;;17.94;62.03;100219.94;18409702;31;20097;-56
2022/09/11 03:22:19;;;;;;;0.90;0.90;;;;;;;17.98;61.42;100217.13;18356274;32;20101;-56
2022/09/11 03:32:24;;;;;;;0.10;0.10;;;;;;;18.01;61.62;100219.63;18355904;32;20154;-56
2022/09/11 03:42:27;;;;;;;0.20;0.20;;;;;;;17.87;62.59;100235.97;18355181;32;20465;-56
2022/09/11 03:52:31;;;;;;;0.25;0.25;;;;;;;17.78;61.60;100231.03;18354537;32;20094;-56
2022/09/11 04:02:34;;;;;;;0.85;0.82;;;;;;;17.71;61.67;100229.50;18355172;32;20102;-56
2022/09/11 04:12:40;;;;;;;0.55;0.55;;;;;;;17.74;61.49;100240.81;18356839;32;20400;-56
2022/09/11 04:22:43;;;;;;;1.20;0.50;;;;;;;17.70;62.53;100247.13;18364123;32;20108;-56
2022/09/11 04:32:49;;;;;;;0.28;0.28;;;;;;;17.77;61.42;100249.53;18362734;32;20093;-57
2022/09/11 04:42:52;;;;;;;2.22;1.87;;;;;;;17.59;61.83;100254.53;18362375;32;20086;-56
2022/09/11 04:52:57;;;;;;;1.27;1.17;;;;;;;17.54;62.67;100238.84;18361809;32;20114;-57
2022/09/11 05:03:00;;;;;;;0.40;0.40;;;;;;;17.45;63.43;100224.22;18361670;32;20090;-56
2022/09/11 05:13:05;;;;;;;0.20;0.20;;;;;;;17.68;63.08;100227.81;18361137;32;20127;-57
2022/09/11 05:23:08;;;;;;;0.30;0.30;;;;;;;17.93;62.45;100228.78;18360569;32;20128;-57
2022/09/11 05:33:12;;;;;;;0.20;0.20;;;;;;;17.56;64.48;100238.81;18360778;32;20105;-57
2022/09/11 05:43:16;;;;;;;0.10;0.10;;;;;;;19.02;61.42;100219.44;18359561;32;20115;-56
2022/09/11 05:53:20;;;;;;;0.10;0.10;;;;;;;21.28;51.70;100218.28;18359572;32;20093;-57
2022/09/11 06:03:25;;;;;;;0.03;0.03;;;;;;;23.54;46.62;100209.66;18359444;32;20161;-56
2022/09/11 06:13:31;;;;;;;0.00;0.00;;;;;;;24.60;43.18;100216.53;18358790;32;20155;-57
2022/09/11 06:23:35;;;;;;;0.00;0.00;;;;;;;24.51;43.63;100223.31;18412243;31;20552;-57
2022/09/11 06:33:40;;;;;;;0.43;0.30;;;;;;;24.44;42.81;100236.19;18358140;32;20149;-57
2022/09/11 06:43:44;;;;;;;0.00;0.00;;;;;;;25.10;41.72;100242.72;18356678;32;20116;-57
2022/09/11 06:53:49;;;;;;;0.00;0.00;;;;;;;25.58;40.08;100235.09;18410050;31;20089;-56
2022/09/11 07:03:54;;;;;;;0.00;0.00;;;;;;;25.87;40.70;100234.06;18356816;32;20170;-57
2022/09/11 07:13:59;;;;;;;0.10;0.10;;;;;;;24.54;42.73;100239.16;18408975;31;20111;-56
2022/09/11 07:24:03;;;;;;;0.10;0.10;;;;;;;24.16;44.50;100229.91;18355866;32;20101;-56
2022/09/11 07:34:09;;;;;;;0.10;0.10;;;;;;;23.33;45.91;100246.41;18355713;32;20432;-56
2022/09/11 07:44:13;;;;;;;0.10;0.10;;;;;;;22.93;47.43;100236.22;18355003;32;20492;-57
2022/09/11 07:54:18;;;;;;;0.08;0.08;;;;;;;23.38;47.56;100221.22;18354447;32;20357;-56
2022/09/11 08:04:21;;;;;;;0.10;0.10;;;;;;;23.77;46.30;100220.72;18354225;32;20105;-56
2022/09/11 08:14:26;;;;;;;0.00;0.00;;;;;;;23.95;44.53;100219.59;18353896;32;20186;-56
2022/09/11 08:24:29;;;;;;;0.03;0.03;;;;;;;24.13;46.17;100219.47;18353467;32;20112;-56
2022/09/11 08:34:37;;;;;;;0.00;0.00;;;;;;;23.90;45.72;100223.50;18352867;32;20097;-56
2022/09/11 08:44:46;;;;;;;0.05;0.05;;;;;;;23.81;46.48;100231.13;18350792;32;20120;-57
2022/09/11 08:54:51;;;;;;;0.15;0.15;;;;;;;23.15;48.44;100251.81;18286605;32;20098;-56
2022/09/11 09:05:05;;;;;;;0.10;0.10;;;;;;;23.11;49.08;100248.47;18295098;32;20385;-56
2022/09/11 09:15:17;;;;;;;0.10;0.10;;;;;;;22.91;49.44;100248.75;18289645;32;20093;-56
2022/09/11 09:25:22;;;;;;;0.10;0.10;;;;;;;23.51;47.68;100237.34;18294698;32;20120;-56
2022/09/11 09:35:38;;;;;;;0.10;0.10;;;;;;;24.18;46.38;100235.16;18297178;32;20093;-57
2022/09/11 09:45:54;;;;;;;0.10;0.10;;;;;;;24.38;45.71;100223.25;18297429;32;20142;-56
2022/09/11 09:56:00;;;;;;;0.10;0.10;;;;;;;24.48;44.65;100215.50;18349684;32;20459;-56
2022/09/11 10:06:03;;;;;;;0.10;0.10;;;;;;;24.26;46.07;100206.22;18348205;32;20108;-56
2022/09/11 10:16:20;;;;;;;0.00;0.00;;;;;;;24.98;43.62;100196.34;18295170;32;20439;-56
2022/09/11 10:26:27;;;;;;;0.10;0.10;;;;;;;24.53;44.37;100200.09;18347462;32;20448;-56
2022/09/11 10:36:33;;;;;;;0.10;0.10;;;;;;;25.13;41.54;100195.31;18294855;32;20100;-56
2022/09/11 10:46:38;;;;;;;0.00;0.00;;;;;;;25.77;42.42;100175.00;18346517;32;20171;-56
2022/09/11 10:56:57;;;;;;;0.03;0.03;;;;;;;26.26;39.60;100168.03;18294839;32;20104;-57
2022/09/11 11:07:06;;;;;;;0.00;0.00;;;;;;;25.35;40.79;100173.38;18346230;32;20114;-55
2022/09/11 11:17:15;;;;;;;0.10;0.10;;;;;;;25.03;41.85;100168.38;18294066;32;20090;-55
2022/09/11 11:27:33;;;;;;;0.30;0.30;;;;;;;25.92;40.09;100159.69;18291938;32;20116;-55
2022/09/11 11:37:41;;;;;;;0.15;0.15;;;;;;;26.35;39.67;100163.81;18292086;32;20155;-55
2022/09/11 11:47:46;;;;;;;0.00;0.00;;;;;;;25.26;41.16;100160.62;18291388;32;20438;-55
2022/09/11 11:57:56;;;;;;;0.00;0.00;;;;;;;25.30;42.22;100159.44;18291105;32;20098;-55
2022/09/11 12:07:59;;;;;;;0.00;0.00;;;;;;;25.40;40.07;100164.16;18343227;32;20090;-54
2022/09/11 12:18:06;;;;;;;0.05;0.05;;;;;;;25.15;40.31;100157.84;18344483;32;20145;-56
2022/09/11 12:28:10;;;;;;;0.00;0.00;;;;;;;25.25;40.87;100137.56;18406300;31;20090;-56
2022/09/11 12:38:23;;;;;;;0.10;0.10;;;;;;;25.82;40.97;100143.47;18358206;32;20101;-55
2022/09/11 12:48:36;;;;;;;0.00;0.00;;;;;;;25.84;39.10;100130.84;18362234;32;20107;-55
2022/09/11 12:58:41;;;;;;;0.00;0.00;;;;;;;26.18;39.57;100131.09;18414753;31;20145;-55
2022/09/11 13:08:48;;;;;;;0.00;0.00;;;;;;;26.68;39.55;100116.81;18361450;32;20637;-55
2022/09/11 13:18:57;;;;;;;0.10;0.10;;;;;;;26.87;37.71;100115.44;18361178;32;20437;-56
2022/09/11 13:29:01;;;;;;;0.10;0.10;;;;;;;26.68;36.94;100113.28;18414700;31;20117;-55
2022/09/11 13:39:06;;;;;;;0.00;0.00;;;;;;;27.02;37.52;100102.72;18413246;31;20120;-55
2022/09/11 13:49:26;;;;;;;0.10;0.10;;;;;;;26.62;38.82;100095.84;18411987;31;20141;-54
2022/09/11 13:59:45;;;;;;;0.10;0.10;;;;;;;25.89;40.71;100101.97;18413455;31;20157;-55
2022/09/11 14:09:53;;;;;;;0.00;0.00;;;;;;;26.20;38.95;100082.03;18359235;31;20112;-55
2022/09/11 14:20:00;;;;;;;0.62;0.10;;;;;;;25.92;38.60;100098.19;18358683;32;20104;-55
2022/09/11 14:30:31;;;;;;;0.00;0.00;;;;;;;24.71;47.31;100130.44;18358426;32;20097;-55
2022/09/11 14:40:49;;;;;;;0.10;0.10;;;;;;;23.52;47.45;100132.50;18410237;31;20108;-55
2022/09/11 14:50:52;;;;;;;0.10;0.10;;;;;;;22.93;47.76;100122.66;18358635;32;20112;-55
2022/09/11 15:00:57;;;;;;;0.10;0.10;;;;;;;23.07;47.32;100131.59;18356144;32;20180;-55
2022/09/11 15:11:00;;;;;;;0.00;0.00;;;;;;;23.08;47.80;100126.19;18409903;31;20375;-55
2022/09/11 15:21:05;;;;;;;0.10;0.10;;;;;;;23.11;49.66;100115.37;18356311;32;20119;-55
2022/09/11 15:31:09;;;;;;;0.00;0.00;;;;;;;23.64;46.18;100116.69;18356148;32;20153;-55
2022/09/11 15:41:14;;;;;;;0.10;0.10;;;;;;;23.94;46.03;100113.06;18350985;32;20106;-55
2022/09/11 15:51:20;;;;;;;0.10;0.10;;;;;;;23.47;47.26;100134.56;18407749;31;20157;-55
2022/09/11 16:01:26;;;;;;;0.10;0.10;;;;;;;22.98;47.71;100109.91;18352916;32;20145;-56
2022/09/11 16:11:31;;;;;;;0.10;0.10;;;;;;;22.96;45.60;100103.81;18353516;32;20099;-56
2022/09/11 16:21:36;;;;;;;0.10;0.10;;;;;;;22.71;48.91;100109.72;18363355;32;20082;-56
2022/09/11 16:31:39;;;;;;;0.20;0.13;;;;;;;22.67;47.69;100118.81;18364057;32;20153;-56
2022/09/11 16:41:44;;;;;;;0.10;0.10;;;;;;;22.60;48.32;100120.97;18415192;31;20462;-56
2022/09/11 16:51:47;;;;;;;0.20;0.10;;;;;;;22.50;46.33;100125.97;18362970;32;20090;-55
2022/09/11 17:01:56;;;;;;;0.10;0.10;;;;;;;22.47;46.76;100110.16;18362646;32;20474;-56
2022/09/11 17:11:59;;;;;;;0.20;0.20;;;;;;;22.13;48.08;100112.06;18415324;31;20101;-56
2022/09/11 17:22:04;;;;;;;0.20;0.20;;;;;;;22.22;48.22;100122.19;18358961;32;20373;-55
2022/09/11 17:32:07;;;;;;;0.10;0.10;;;;;;;22.04;48.79;100124.91;18359360;32;20339;-56
2022/09/11 17:42:34;;;;;;;0.20;0.20;;;;;;;22.35;48.89;100119.69;18409331;31;20094;-56
2022/09/11 17:52:37;;;;;;;0.10;0.10;;;;;;;22.09;50.42;100145.03;18359029;32;20108;-56
2022/09/11 18:02:42;;;;;;;0.05;0.05;;;;;;;21.99;50.73;100177.44;18412084;31;20116;-56
2022/09/11 18:12:47;;;;;;;0.10;0.10;;;;;;;21.88;52.50;100180.69;18412673;31;20090;-57
2022/09/11 18:22:52;;;;;;;0.20;0.20;;;;;;;21.89;52.29;100179.75;18348319;32;20112;-56
2022/09/11 18:32:55;;;;;;;0.20;0.20;;;;;;;21.70;51.53;100181.66;18348480;32;20353;-56
2022/09/11 18:43:01;;;;;;;0.20;0.20;;;;;;;21.41;50.92;100184.00;18410018;31;20437;-55
2022/09/11 18:53:04;;;;;;;0.05;0.05;;;;;;;21.25;51.55;100198.03;18410555;31;20146;-56
2022/09/11 19:03:09;;;;;;;0.20;0.20;;;;;;;21.10;51.30;100193.47;18355677;32;20132;-56
2022/09/11 19:13:12;;;;;;;0.20;0.20;;;;;;;20.90;52.98;100185.59;18405493;31;20097;-56
2022/09/11 19:23:17;;;;;;;0.10;0.10;;;;;;;20.81;52.07;100193.97;18408092;31;20089;-56
2022/09/11 19:33:20;;;;;;;0.10;0.10;;;;;;;20.40;53.20;100199.47;18354050;32;20124;-55
2022/09/11 19:43:25;;;;;;;0.20;0.20;;;;;;;20.39;53.75;100195.94;18355177;32;20097;-56
2022/09/11 19:53:29;;;;;;;0.10;0.10;;;;;;;20.66;52.82;100188.44;18407963;31;20105;-56
2022/09/11 20:03:33;;;;;;;0.20;0.20;;;;;;;20.57;52.30;100202.16;18355522;31;20122;-56
2022/09/11 20:13:37;;;;;;;0.17;0.17;;;;;;;20.56;52.41;100207.53;18407117;31;20089;-56
2022/09/11 20:23:41;;;;;;;0.28;0.28;;;;;;;20.66;52.19;100222.09;18352799;32;20123;-56
2022/09/11 20:33:46;;;;;;;1.05;1.02;;;;;;;20.01;55.47;100214.44;18353241;32;20097;-56
2022/09/11 20:43:51;;;;;;;0.40;0.40;;;;;;;19.97;55.02;100205.78;18402185;31;20171;-56
2022/09/11 20:53:54;;;;;;;0.20;0.20;;;;;;;19.85;55.96;100208.94;18349396;32;20175;-56
2022/09/11 21:04:00;;;;;;;0.22;0.22;;;;;;;19.75;56.09;100209.34;18357076;32;20094;-56
2022/09/11 21:14:03;;;;;;;0.20;0.20;;;;;;;19.79;55.75;100223.31;18412288;31;20104;-56
2022/09/11 21:24:11;;;;;;;0.10;0.10;;;;;;;19.86;55.57;100215.94;18361872;32;20121;-56
2022/09/11 21:34:14;;;;;;;0.10;0.10;;;;;;;19.65;55.05;100213.31;18360865;32;20445;-56
2022/09/11 21:44:19;;;;;;;0.20;0.20;;;;;;;19.89;54.86;100215.81;18360478;32;20129;-57
2022/09/11 21:54:22;;;;;;;0.20;0.20;;;;;;;19.67;55.24;100228.19;18359809;32;20358;-55
2022/09/11 22:04:26;;;;;;;0.20;0.20;;;;;;;19.70;54.97;100224.56;18359179;32;20162;-56
2022/09/11 22:14:30;;;;;;;0.20;0.20;;;;;;;20.23;52.25;100215.19;18358922;32;20112;-55
2022/09/11 22:24:34;;;;;;;0.30;0.30;;;;;;;20.29;52.23;100211.38;18359060;32;20090;-55
2022/09/11 22:34:37;;;;;;;0.10;0.10;;;;;;;20.24;51.41;100219.53;18358149;32;20112;-56
2022/09/11 22:44:42;;;;;;;0.52;0.52;;;;;;;20.18;51.81;100214.53;18357805;32;20093;-56
2022/09/11 22:54:46;;;;;;;0.20;0.20;;;;;;;20.23;53.03;100230.25;18358694;32;20093;-56
2022/09/11 23:15:09;;;;;;;0.10;0.10;;;;;;;19.87;54.15;100239.72;18358431;31;20097;-56
2022/09/11 23:25:13;;;;;;;0.10;0.10;;;;;;;19.95;54.45;100242.06;18355563;31;20144;-55
2022/09/11 23:35:17;;;;;;;0.10;0.10;;;;;;;19.64;55.41;100246.87;18356225;32;20138;-56
2022/09/11 23:45:21;;;;;;;0.20;0.20;;;;;;;19.41;55.86;100254.00;18350195;31;155923;-56
2022/09/11 23:55:25;;;;;;;0.20;0.20;;;;;;;18.81;58.66;100274.87;18354845;32;20145;-55
